sensor_id;sensor_type;location;lat;lon;timestamp;temperature;humidity
15452;DHT22;7827;53.594;9.938;2023-04-03T00:01:28;1.30;99.90
15452;DHT22;7827;53.594;9.938;2023-04-03T00:03:56;1.30;99.90
15452;DHT22;7827;53.594;9.938;2023-04-03T00:06:25;1.20;99.90
15452;DHT22;7827;53.594;9.938;2023-04-03T00:08:54;1.20;99.90
15452;DHT22;7827;53.594;9.938;2023-04-03T00:11:23;1.30;99.90
15452;DHT22;7827;53.594;9.938;2023-04-03T00:13:52;1.30;99.90
15452;DHT22;7827;53.594;9.938;2023-04-03T00:16:21;1.20;99.90
15452;DHT22;7827;53.594;9.938;2023-04-03T00:18:50;1.20;99.90
15452;DHT22;7827;53.594;9.938;2023-04-03T00:21:18;1.10;99.90
15452;DHT22;7827;53.594;9.938;2023-04-03T00:23:46;1.10;99.90
15452;DHT22;7827;53.594;9.938;2023-04-03T00:26:14;1.00;99.90
15452;DHT22;7827;53.594;9.938;2023-04-03T00:28:43;1.10;99.90
15452;DHT22;7827;53.594;9.938;2023-04-03T00:31:14;1.10;99.90
15452;DHT22;7827;53.594;9.938;2023-04-03T00:33:44;1.00;99.90
15452;DHT22;7827;53.594;9.938;2023-04-03T00:36:13;1.00;99.90
15452;DHT22;7827;53.594;9.938;2023-04-03T00:38:42;1.00;99.90
15452;DHT22;7827;53.594;9.938;2023-04-03T00:41:10;1.00;99.90
15452;DHT22;7827;53.594;9.938;2023-04-03T00:43:38;1.00;99.90
15452;DHT22;7827;53.594;9.938;2023-04-03T00:46:08;1.00;99.90
15452;DHT22;7827;53.594;9.938;2023-04-03T00:48:39;1.00;99.90
15452;DHT22;7827;53.594;9.938;2023-04-03T00:51:13;0.90;99.90
15452;DHT22;7827;53.594;9.938;2023-04-03T00:53:46;0.90;99.90
15452;DHT22;7827;53.594;9.938;2023-04-03T00:56:20;0.80;99.90
15452;DHT22;7827;53.594;9.938;2023-04-03T00:58:53;0.80;99.90
15452;DHT22;7827;53.594;9.938;2023-04-03T01:01:27;0.80;99.90
15452;DHT22;7827;53.594;9.938;2023-04-03T01:03:57;0.70;99.90
15452;DHT22;7827;53.594;9.938;2023-04-03T01:06:31;0.70;99.90
15452;DHT22;7827;53.594;9.938;2023-04-03T01:09:07;0.70;99.90
15452;DHT22;7827;53.594;9.938;2023-04-03T01:11:35;0.60;99.90
15452;DHT22;7827;53.594;9.938;2023-04-03T01:14:04;0.60;99.90
15452;DHT22;7827;53.594;9.938;2023-04-03T01:16:33;0.60;99.90
15452;DHT22;7827;53.594;9.938;2023-04-03T01:19:02;0.60;99.90
15452;DHT22;7827;53.594;9.938;2023-04-03T01:21:56;0.60;99.90
15452;DHT22;7827;53.594;9.938;2023-04-03T01:24:36;0.60;99.90
15452;DHT22;7827;53.594;9.938;2023-04-03T01:27:10;0.50;99.90
15452;DHT22;7827;53.594;9.938;2023-04-03T01:29:40;0.50;99.90
15452;DHT22;7827;53.594;9.938;2023-04-03T01:32:11;0.50;99.90
15452;DHT22;7827;53.594;9.938;2023-04-03T01:34:41;0.50;99.90
15452;DHT22;7827;53.594;9.938;2023-04-03T01:37:09;0.40;99.90
15452;DHT22;7827;53.594;9.938;2023-04-03T01:39:38;0.40;99.90
15452;DHT22;7827;53.594;9.938;2023-04-03T01:42:06;0.30;99.90
15452;DHT22;7827;53.594;9.938;2023-04-03T01:44:38;0.30;99.90
15452;DHT22;7827;53.594;9.938;2023-04-03T01:47:07;0.30;99.90
15452;DHT22;7827;53.594;9.938;2023-04-03T01:49:39;0.30;99.90
15452;DHT22;7827;53.594;9.938;2023-04-03T01:52:07;0.40;99.90
15452;DHT22;7827;53.594;9.938;2023-04-03T01:54:36;0.30;99.90
15452;DHT22;7827;53.594;9.938;2023-04-03T01:57:05;0.30;99.90
15452;DHT22;7827;53.594;9.938;2023-04-03T01:59:33;0.20;99.90
15452;DHT22;7827;53.594;9.938;2023-04-03T02:02:02;0.20;99.90
15452;DHT22;7827;53.594;9.938;2023-04-03T02:04:30;0.20;99.90
15452;DHT22;7827;53.594;9.938;2023-04-03T02:07:00;0.20;99.90
15452;DHT22;7827;53.594;9.938;2023-04-03T02:09:28;0.30;99.90
15452;DHT22;7827;53.594;9.938;2023-04-03T02:11:57;0.30;99.90
15452;DHT22;7827;53.594;9.938;2023-04-03T02:14:25;0.30;99.90
15452;DHT22;7827;53.594;9.938;2023-04-03T02:16:54;0.30;99.90
15452;DHT22;7827;53.594;9.938;2023-04-03T02:19:23;0.40;99.90
15452;DHT22;7827;53.594;9.938;2023-04-03T02:21:51;0.40;99.90
15452;DHT22;7827;53.594;9.938;2023-04-03T02:24:21;0.30;99.90
15452;DHT22;7827;53.594;9.938;2023-04-03T02:26:49;0.20;99.90
15452;DHT22;7827;53.594;9.938;2023-04-03T02:29:18;0.20;99.90
15452;DHT22;7827;53.594;9.938;2023-04-03T02:31:47;0.20;99.90
15452;DHT22;7827;53.594;9.938;2023-04-03T02:34:15;0.30;99.90
15452;DHT22;7827;53.594;9.938;2023-04-03T02:36:45;0.40;99.90
15452;DHT22;7827;53.594;9.938;2023-04-03T02:39:14;0.30;99.90
15452;DHT22;7827;53.594;9.938;2023-04-03T02:41:45;0.30;99.90
15452;DHT22;7827;53.594;9.938;2023-04-03T02:44:19;0.20;99.90
15452;DHT22;7827;53.594;9.938;2023-04-03T02:46:47;0.20;99.90
15452;DHT22;7827;53.594;9.938;2023-04-03T02:49:16;0.10;99.90
15452;DHT22;7827;53.594;9.938;2023-04-03T02:51:45;0.00;99.90
15452;DHT22;7827;53.594;9.938;2023-04-03T02:54:14;0.00;99.90
15452;DHT22;7827;53.594;9.938;2023-04-03T02:56:48;0.10;99.90
15452;DHT22;7827;53.594;9.938;2023-04-03T02:59:17;0.00;99.90
15452;DHT22;7827;53.594;9.938;2023-04-03T03:01:45;0.00;99.90
15452;DHT22;7827;53.594;9.938;2023-04-03T03:04:14;0.10;99.90
15452;DHT22;7827;53.594;9.938;2023-04-03T03:06:42;0.00;99.90
15452;DHT22;7827;53.594;9.938;2023-04-03T03:09:11;0.00;99.90
15452;DHT22;7827;53.594;9.938;2023-04-03T03:11:42;0.00;99.90
15452;DHT22;7827;53.594;9.938;2023-04-03T03:14:11;0.10;99.90
15452;DHT22;7827;53.594;9.938;2023-04-03T03:16:40;0.00;99.90
15452;DHT22;7827;53.594;9.938;2023-04-03T03:19:08;0.00;99.90
15452;DHT22;7827;53.594;9.938;2023-04-03T03:21:37;0.00;99.90
15452;DHT22;7827;53.594;9.938;2023-04-03T03:24:06;-0.10;99.90
15452;DHT22;7827;53.594;9.938;2023-04-03T03:26:34;-0.10;99.90
15452;DHT22;7827;53.594;9.938;2023-04-03T03:29:03;-0.10;99.90
15452;DHT22;7827;53.594;9.938;2023-04-03T03:31:33;-0.10;99.90
15452;DHT22;7827;53.594;9.938;2023-04-03T03:34:01;-0.10;99.90
15452;DHT22;7827;53.594;9.938;2023-04-03T03:36:30;-0.10;99.90
15452;DHT22;7827;53.594;9.938;2023-04-03T03:38:58;-0.20;99.90
15452;DHT22;7827;53.594;9.938;2023-04-03T03:41:27;-0.20;99.90
15452;DHT22;7827;53.594;9.938;2023-04-03T03:43:55;-0.30;99.90
15452;DHT22;7827;53.594;9.938;2023-04-03T03:46:23;-0.30;99.90
15452;DHT22;7827;53.594;9.938;2023-04-03T03:48:54;-0.20;99.90
15452;DHT22;7827;53.594;9.938;2023-04-03T03:51:22;-0.30;99.90
15452;DHT22;7827;53.594;9.938;2023-04-03T03:53:51;-0.30;99.90
15452;DHT22;7827;53.594;9.938;2023-04-03T03:56:20;-0.30;99.90
15452;DHT22;7827;53.594;9.938;2023-04-03T03:58:49;-0.30;99.90
15452;DHT22;7827;53.594;9.938;2023-04-03T04:01:17;-0.40;99.90
15452;DHT22;7827;53.594;9.938;2023-04-03T04:03:47;-0.40;99.90
15452;DHT22;7827;53.594;9.938;2023-04-03T04:06:21;-0.40;99.90
15452;DHT22;7827;53.594;9.938;2023-04-03T04:08:51;-0.30;99.90
15452;DHT22;7827;53.594;9.938;2023-04-03T04:11:20;-0.30;99.90
15452;DHT22;7827;53.594;9.938;2023-04-03T04:13:50;-0.30;99.90
15452;DHT22;7827;53.594;9.938;2023-04-03T04:16:23;-0.30;99.90
15452;DHT22;7827;53.594;9.938;2023-04-03T04:18:52;-0.30;99.90
15452;DHT22;7827;53.594;9.938;2023-04-03T04:21:23;-0.30;99.90
15452;DHT22;7827;53.594;9.938;2023-04-03T04:23:52;-0.30;99.90
15452;DHT22;7827;53.594;9.938;2023-04-03T04:26:21;-0.30;99.90
15452;DHT22;7827;53.594;9.938;2023-04-03T04:28:49;-0.40;99.90
15452;DHT22;7827;53.594;9.938;2023-04-03T04:31:18;-0.40;99.90
15452;DHT22;7827;53.594;9.938;2023-04-03T04:33:48;-0.40;99.90
15452;DHT22;7827;53.594;9.938;2023-04-03T04:36:17;-0.40;99.90
15452;DHT22;7827;53.594;9.938;2023-04-03T04:38:47;-0.40;99.90
15452;DHT22;7827;53.594;9.938;2023-04-03T04:41:21;-0.50;99.90
15452;DHT22;7827;53.594;9.938;2023-04-03T04:43:51;-0.50;99.90
15452;DHT22;7827;53.594;9.938;2023-04-03T04:46:20;-0.50;99.90
15452;DHT22;7827;53.594;9.938;2023-04-03T04:48:52;-0.50;99.90
15452;DHT22;7827;53.594;9.938;2023-04-03T04:51:22;-0.60;99.90
15452;DHT22;7827;53.594;9.938;2023-04-03T04:53:51;-0.60;99.90
15452;DHT22;7827;53.594;9.938;2023-04-03T04:56:22;-0.60;99.90
15452;DHT22;7827;53.594;9.938;2023-04-03T04:58:54;-0.50;99.90
15452;DHT22;7827;53.594;9.938;2023-04-03T05:01:24;-0.50;99.90
15452;DHT22;7827;53.594;9.938;2023-04-03T05:04:02;-0.50;99.90
15452;DHT22;7827;53.594;9.938;2023-04-03T05:06:31;-0.50;99.90
15452;DHT22;7827;53.594;9.938;2023-04-03T05:09:02;-0.60;99.90
15452;DHT22;7827;53.594;9.938;2023-04-03T05:11:31;-0.50;99.90
15452;DHT22;7827;53.594;9.938;2023-04-03T05:14:00;-0.50;99.90
15452;DHT22;7827;53.594;9.938;2023-04-03T05:16:29;-0.40;99.90
15452;DHT22;7827;53.594;9.938;2023-04-03T05:18:58;-0.40;99.90
15452;DHT22;7827;53.594;9.938;2023-04-03T05:21:26;-0.30;99.90
15452;DHT22;7827;53.594;9.938;2023-04-03T05:24:03;-0.20;99.90
15452;DHT22;7827;53.594;9.938;2023-04-03T05:26:38;-0.10;99.90
15452;DHT22;7827;53.594;9.938;2023-04-03T05:29:07;-0.20;99.90
15452;DHT22;7827;53.594;9.938;2023-04-03T05:31:36;-0.10;99.90
15452;DHT22;7827;53.594;9.938;2023-04-03T05:34:07;-0.10;99.90
15452;DHT22;7827;53.594;9.938;2023-04-03T05:36:37;-0.10;99.90
15452;DHT22;7827;53.594;9.938;2023-04-03T05:39:09;0.00;99.90
15452;DHT22;7827;53.594;9.938;2023-04-03T05:41:41;0.10;99.90
15452;DHT22;7827;53.594;9.938;2023-04-03T05:44:09;0.10;99.90
15452;DHT22;7827;53.594;9.938;2023-04-03T05:46:38;0.20;99.90
15452;DHT22;7827;53.594;9.938;2023-04-03T05:49:08;0.30;99.90
15452;DHT22;7827;53.594;9.938;2023-04-03T05:51:38;0.40;99.90
15452;DHT22;7827;53.594;9.938;2023-04-03T05:54:19;0.50;99.90
15452;DHT22;7827;53.594;9.938;2023-04-03T05:56:52;0.50;99.90
15452;DHT22;7827;53.594;9.938;2023-04-03T05:59:22;0.60;99.90
15452;DHT22;7827;53.594;9.938;2023-04-03T06:01:52;0.80;99.90
15452;DHT22;7827;53.594;9.938;2023-04-03T06:04:21;0.80;99.90
15452;DHT22;7827;53.594;9.938;2023-04-03T06:06:50;0.80;99.90
15452;DHT22;7827;53.594;9.938;2023-04-03T06:09:24;0.80;99.90
15452;DHT22;7827;53.594;9.938;2023-04-03T06:11:54;0.90;99.90
15452;DHT22;7827;53.594;9.938;2023-04-03T06:14:24;1.10;99.90
15452;DHT22;7827;53.594;9.938;2023-04-03T06:16:52;1.20;99.90
15452;DHT22;7827;53.594;9.938;2023-04-03T06:19:21;1.30;99.90
15452;DHT22;7827;53.594;9.938;2023-04-03T06:21:53;1.40;99.90
15452;DHT22;7827;53.594;9.938;2023-04-03T06:24:24;1.50;99.90
15452;DHT22;7827;53.594;9.938;2023-04-03T06:26:53;1.60;99.90
15452;DHT22;7827;53.594;9.938;2023-04-03T06:29:21;1.60;99.90
15452;DHT22;7827;53.594;9.938;2023-04-03T06:31:50;1.70;99.90
15452;DHT22;7827;53.594;9.938;2023-04-03T06:34:18;1.80;99.90
15452;DHT22;7827;53.594;9.938;2023-04-03T06:36:47;1.90;99.90
15452;DHT22;7827;53.594;9.938;2023-04-03T06:39:19;2.00;99.90
15452;DHT22;7827;53.594;9.938;2023-04-03T06:41:50;2.10;99.90
15452;DHT22;7827;53.594;9.938;2023-04-03T06:44:27;2.20;99.90
15452;DHT22;7827;53.594;9.938;2023-04-03T06:46:56;2.30;99.90
15452;DHT22;7827;53.594;9.938;2023-04-03T06:49:24;2.40;99.90
15452;DHT22;7827;53.594;9.938;2023-04-03T06:51:53;2.50;99.90
15452;DHT22;7827;53.594;9.938;2023-04-03T06:54:21;2.60;99.90
15452;DHT22;7827;53.594;9.938;2023-04-03T06:56:51;2.70;99.90
15452;DHT22;7827;53.594;9.938;2023-04-03T06:59:19;2.80;99.90
15452;DHT22;7827;53.594;9.938;2023-04-03T07:01:47;2.90;99.90
15452;DHT22;7827;53.594;9.938;2023-04-03T07:04:16;3.10;99.90
15452;DHT22;7827;53.594;9.938;2023-04-03T07:06:45;3.10;99.90
15452;DHT22;7827;53.594;9.938;2023-04-03T07:09:13;3.30;99.90
15452;DHT22;7827;53.594;9.938;2023-04-03T07:11:42;3.40;99.90
15452;DHT22;7827;53.594;9.938;2023-04-03T07:14:11;3.50;99.90
15452;DHT22;7827;53.594;9.938;2023-04-03T07:16:39;3.60;99.90
15452;DHT22;7827;53.594;9.938;2023-04-03T07:19:08;3.70;99.90
15452;DHT22;7827;53.594;9.938;2023-04-03T07:21:37;3.80;99.90
15452;DHT22;7827;53.594;9.938;2023-04-03T07:24:05;3.90;99.90
15452;DHT22;7827;53.594;9.938;2023-04-03T07:26:39;4.00;99.90
15452;DHT22;7827;53.594;9.938;2023-04-03T07:29:07;4.10;99.90
15452;DHT22;7827;53.594;9.938;2023-04-03T07:31:38;4.30;99.90
15452;DHT22;7827;53.594;9.938;2023-04-03T07:34:08;4.40;99.90
15452;DHT22;7827;53.594;9.938;2023-04-03T07:36:37;4.60;99.90
15452;DHT22;7827;53.594;9.938;2023-04-03T07:39:05;4.60;99.90
15452;DHT22;7827;53.594;9.938;2023-04-03T07:41:34;4.70;99.90
15452;DHT22;7827;53.594;9.938;2023-04-03T07:44:02;4.70;99.90
15452;DHT22;7827;53.594;9.938;2023-04-03T07:46:31;4.80;99.90
15452;DHT22;7827;53.594;9.938;2023-04-03T07:49:01;5.00;99.90
15452;DHT22;7827;53.594;9.938;2023-04-03T07:51:29;5.00;99.90
15452;DHT22;7827;53.594;9.938;2023-04-03T07:53:58;5.00;99.90
15452;DHT22;7827;53.594;9.938;2023-04-03T07:56:26;5.10;99.90
15452;DHT22;7827;53.594;9.938;2023-04-03T07:58:54;5.10;99.90
15452;DHT22;7827;53.594;9.938;2023-04-03T08:01:23;5.20;99.90
15452;DHT22;7827;53.594;9.938;2023-04-03T08:03:51;5.20;99.90
15452;DHT22;7827;53.594;9.938;2023-04-03T08:06:21;5.20;99.90
15452;DHT22;7827;53.594;9.938;2023-04-03T08:09:08;5.40;99.90
15452;DHT22;7827;53.594;9.938;2023-04-03T08:11:38;5.30;99.90
15452;DHT22;7827;53.594;9.938;2023-04-03T08:14:07;5.30;99.90
15452;DHT22;7827;53.594;9.938;2023-04-03T08:16:38;5.40;99.90
15452;DHT22;7827;53.594;9.938;2023-04-03T08:19:06;5.50;99.90
15452;DHT22;7827;53.594;9.938;2023-04-03T08:21:46;5.70;99.90
15452;DHT22;7827;53.594;9.938;2023-04-03T08:24:14;5.70;99.90
15452;DHT22;7827;53.594;9.938;2023-04-03T08:26:42;5.80;99.90
15452;DHT22;7827;53.594;9.938;2023-04-03T08:29:10;5.80;99.90
15452;DHT22;7827;53.594;9.938;2023-04-03T08:31:40;5.80;99.90
15452;DHT22;7827;53.594;9.938;2023-04-03T08:34:08;5.90;99.90
15452;DHT22;7827;53.594;9.938;2023-04-03T08:36:36;6.00;99.90
15452;DHT22;7827;53.594;9.938;2023-04-03T08:39:06;6.00;99.90
15452;DHT22;7827;53.594;9.938;2023-04-03T08:41:36;6.10;99.90
15452;DHT22;7827;53.594;9.938;2023-04-03T08:44:23;5.90;99.90
15452;DHT22;7827;53.594;9.938;2023-04-03T08:47:01;5.90;99.90
15452;DHT22;7827;53.594;9.938;2023-04-03T08:49:35;5.90;99.90
15452;DHT22;7827;53.594;9.938;2023-04-03T08:52:11;6.10;99.90
15452;DHT22;7827;53.594;9.938;2023-04-03T08:54:49;6.20;99.90
15452;DHT22;7827;53.594;9.938;2023-04-03T08:57:26;6.20;99.90
15452;DHT22;7827;53.594;9.938;2023-04-03T08:59:59;6.10;99.90
15452;DHT22;7827;53.594;9.938;2023-04-03T09:02:34;6.20;99.90
15452;DHT22;7827;53.594;9.938;2023-04-03T09:05:13;6.20;99.90
15452;DHT22;7827;53.594;9.938;2023-04-03T09:07:47;6.30;99.90
15452;DHT22;7827;53.594;9.938;2023-04-03T09:10:28;6.40;99.90
15452;DHT22;7827;53.594;9.938;2023-04-03T09:13:05;6.70;99.90
15452;DHT22;7827;53.594;9.938;2023-04-03T09:15:38;6.50;99.90
15452;DHT22;7827;53.594;9.938;2023-04-03T09:18:13;6.50;99.90
15452;DHT22;7827;53.594;9.938;2023-04-03T09:20:53;6.60;99.90
15452;DHT22;7827;53.594;9.938;2023-04-03T09:23:31;6.60;99.90
15452;DHT22;7827;53.594;9.938;2023-04-03T09:26:14;6.70;99.90
15452;DHT22;7827;53.594;9.938;2023-04-03T09:28:46;6.70;99.90
15452;DHT22;7827;53.594;9.938;2023-04-03T09:31:20;6.80;99.90
15452;DHT22;7827;53.594;9.938;2023-04-03T09:33:52;6.80;99.90
15452;DHT22;7827;53.594;9.938;2023-04-03T09:36:44;6.70;99.90
15452;DHT22;7827;53.594;9.938;2023-04-03T09:39:16;6.80;99.90
15452;DHT22;7827;53.594;9.938;2023-04-03T09:42:00;7.00;99.90
15452;DHT22;7827;53.594;9.938;2023-04-03T09:44:31;6.80;99.90
15452;DHT22;7827;53.594;9.938;2023-04-03T09:47:17;6.90;99.90
15452;DHT22;7827;53.594;9.938;2023-04-03T09:49:47;7.00;99.90
15452;DHT22;7827;53.594;9.938;2023-04-03T09:52:20;6.80;99.90
15452;DHT22;7827;53.594;9.938;2023-04-03T09:54:52;6.90;99.90
15452;DHT22;7827;53.594;9.938;2023-04-03T09:57:21;6.90;99.90
15452;DHT22;7827;53.594;9.938;2023-04-03T09:59:58;7.00;99.90
15452;DHT22;7827;53.594;9.938;2023-04-03T10:02:35;7.00;99.90
15452;DHT22;7827;53.594;9.938;2023-04-03T10:05:26;7.00;99.90
15452;DHT22;7827;53.594;9.938;2023-04-03T10:08:11;7.20;99.90
15452;DHT22;7827;53.594;9.938;2023-04-03T10:11:13;7.20;99.90
15452;DHT22;7827;53.594;9.938;2023-04-03T10:13:52;7.40;99.90
15452;DHT22;7827;53.594;9.938;2023-04-03T10:16:26;7.60;99.90
15452;DHT22;7827;53.594;9.938;2023-04-03T10:19:10;7.70;99.90
15452;DHT22;7827;53.594;9.938;2023-04-03T10:21:54;7.70;99.90
15452;DHT22;7827;53.594;9.938;2023-04-03T10:24:34;7.70;99.90
15452;DHT22;7827;53.594;9.938;2023-04-03T10:27:12;7.80;99.90
15452;DHT22;7827;53.594;9.938;2023-04-03T10:29:54;7.70;99.90
15452;DHT22;7827;53.594;9.938;2023-04-03T10:32:47;7.80;99.90
15452;DHT22;7827;53.594;9.938;2023-04-03T10:35:35;7.60;99.90
15452;DHT22;7827;53.594;9.938;2023-04-03T10:38:16;7.50;99.90
15452;DHT22;7827;53.594;9.938;2023-04-03T10:40:54;7.60;99.90
15452;DHT22;7827;53.594;9.938;2023-04-03T10:43:33;7.80;99.90
15452;DHT22;7827;53.594;9.938;2023-04-03T10:46:13;7.90;99.90
15452;DHT22;7827;53.594;9.938;2023-04-03T10:49:00;7.90;99.90
15452;DHT22;7827;53.594;9.938;2023-04-03T10:51:41;8.00;99.90
15452;DHT22;7827;53.594;9.938;2023-04-03T10:54:17;8.20;99.90
15452;DHT22;7827;53.594;9.938;2023-04-03T10:56:54;8.20;99.90
15452;DHT22;7827;53.594;9.938;2023-04-03T10:59:41;8.30;99.90
15452;DHT22;7827;53.594;9.938;2023-04-03T11:02:21;8.30;99.90
15452;DHT22;7827;53.594;9.938;2023-04-03T11:05:00;8.00;99.90
15452;DHT22;7827;53.594;9.938;2023-04-03T11:07:36;8.00;99.90
15452;DHT22;7827;53.594;9.938;2023-04-03T11:10:13;8.10;99.90
15452;DHT22;7827;53.594;9.938;2023-04-03T11:12:51;8.00;99.90
15452;DHT22;7827;53.594;9.938;2023-04-03T11:15:24;8.10;99.90
15452;DHT22;7827;53.594;9.938;2023-04-03T11:18:00;8.30;99.90
15452;DHT22;7827;53.594;9.938;2023-04-03T11:20:33;8.20;99.90
15452;DHT22;7827;53.594;9.938;2023-04-03T11:23:08;8.30;99.90
15452;DHT22;7827;53.594;9.938;2023-04-03T11:25:43;8.50;99.90
15452;DHT22;7827;53.594;9.938;2023-04-03T11:28:15;8.60;99.90
15452;DHT22;7827;53.594;9.938;2023-04-03T11:30:47;8.60;99.90
15452;DHT22;7827;53.594;9.938;2023-04-03T11:33:36;8.70;99.90
15452;DHT22;7827;53.594;9.938;2023-04-03T11:36:11;8.80;99.90
15452;DHT22;7827;53.594;9.938;2023-04-03T11:38:53;8.90;99.90
15452;DHT22;7827;53.594;9.938;2023-04-03T11:41:26;8.90;99.90
15452;DHT22;7827;53.594;9.938;2023-04-03T11:43:59;8.60;99.90
15452;DHT22;7827;53.594;9.938;2023-04-03T11:46:50;8.20;99.90
15452;DHT22;7827;53.594;9.938;2023-04-03T11:49:54;7.70;99.90
15452;DHT22;7827;53.594;9.938;2023-04-03T11:53:00;7.50;99.90
15452;DHT22;7827;53.594;9.938;2023-04-03T11:55:53;7.30;99.90
15452;DHT22;7827;53.594;9.938;2023-04-03T11:58:31;7.30;99.90
15452;DHT22;7827;53.594;9.938;2023-04-03T12:01:08;7.20;99.90
15452;DHT22;7827;53.594;9.938;2023-04-03T12:04:07;7.30;99.90
15452;DHT22;7827;53.594;9.938;2023-04-03T12:09:58;7.50;99.90
15452;DHT22;7827;53.594;9.938;2023-04-03T12:12:39;7.80;99.90
15452;DHT22;7827;53.594;9.938;2023-04-03T12:15:47;8.20;99.90
15452;DHT22;7827;53.594;9.938;2023-04-03T12:22:06;7.90;99.90
15452;DHT22;7827;53.594;9.938;2023-04-03T12:24:39;7.70;99.90
15452;DHT22;7827;53.594;9.938;2023-04-03T12:27:26;7.50;99.90
15452;DHT22;7827;53.594;9.938;2023-04-03T12:30:03;7.40;99.90
15452;DHT22;7827;53.594;9.938;2023-04-03T12:35:46;7.30;99.90
15452;DHT22;7827;53.594;9.938;2023-04-03T12:38:41;7.50;99.90
15452;DHT22;7827;53.594;9.938;2023-04-03T12:41:36;7.60;99.90
15452;DHT22;7827;53.594;9.938;2023-04-03T12:44:26;7.80;99.90
15452;DHT22;7827;53.594;9.938;2023-04-03T12:47:18;7.80;99.90
15452;DHT22;7827;53.594;9.938;2023-04-03T12:49:52;8.00;99.70
15452;DHT22;7827;53.594;9.938;2023-04-03T12:52:32;8.10;99.90
15452;DHT22;7827;53.594;9.938;2023-04-03T12:55:13;8.10;99.90
15452;DHT22;7827;53.594;9.938;2023-04-03T12:57:46;8.30;99.90
15452;DHT22;7827;53.594;9.938;2023-04-03T13:00:38;8.30;99.90
15452;DHT22;7827;53.594;9.938;2023-04-03T13:03:21;8.40;99.90
15452;DHT22;7827;53.594;9.938;2023-04-03T13:05:55;8.50;99.90
15452;DHT22;7827;53.594;9.938;2023-04-03T13:08:27;8.60;99.90
15452;DHT22;7827;53.594;9.938;2023-04-03T13:11:00;8.40;99.90
15452;DHT22;7827;53.594;9.938;2023-04-03T13:13:31;8.30;99.90
15452;DHT22;7827;53.594;9.938;2023-04-03T13:16:07;8.20;99.90
15452;DHT22;7827;53.594;9.938;2023-04-03T13:18:38;8.30;99.90
15452;DHT22;7827;53.594;9.938;2023-04-03T13:21:10;8.40;99.90
15452;DHT22;7827;53.594;9.938;2023-04-03T13:23:45;8.10;99.90
15452;DHT22;7827;53.594;9.938;2023-04-03T13:26:26;8.10;99.90
15452;DHT22;7827;53.594;9.938;2023-04-03T13:29:02;8.10;99.90
15452;DHT22;7827;53.594;9.938;2023-04-03T13:31:36;8.00;99.90
15452;DHT22;7827;53.594;9.938;2023-04-03T13:34:12;8.10;99.60
15452;DHT22;7827;53.594;9.938;2023-04-03T13:36:50;8.10;99.90
15452;DHT22;7827;53.594;9.938;2023-04-03T13:39:27;8.00;99.90
15452;DHT22;7827;53.594;9.938;2023-04-03T13:41:58;8.20;99.90
15452;DHT22;7827;53.594;9.938;2023-04-03T13:44:34;8.30;99.90
15452;DHT22;7827;53.594;9.938;2023-04-03T13:47:20;8.30;99.90
15452;DHT22;7827;53.594;9.938;2023-04-03T13:50:00;8.40;99.90
15452;DHT22;7827;53.594;9.938;2023-04-03T13:52:34;8.40;99.90
15452;DHT22;7827;53.594;9.938;2023-04-03T13:55:17;8.30;99.90
15452;DHT22;7827;53.594;9.938;2023-04-03T13:57:54;8.40;99.90
15452;DHT22;7827;53.594;9.938;2023-04-03T14:00:36;8.50;99.90
15452;DHT22;7827;53.594;9.938;2023-04-03T14:03:13;8.50;99.90
15452;DHT22;7827;53.594;9.938;2023-04-03T14:05:42;8.30;99.90
15452;DHT22;7827;53.594;9.938;2023-04-03T14:08:11;8.00;99.90
15452;DHT22;7827;53.594;9.938;2023-04-03T14:10:40;7.90;99.90
15452;DHT22;7827;53.594;9.938;2023-04-03T14:13:11;7.80;99.90
15452;DHT22;7827;53.594;9.938;2023-04-03T14:15:41;7.70;99.90
15452;DHT22;7827;53.594;9.938;2023-04-03T14:18:11;7.80;99.90
15452;DHT22;7827;53.594;9.938;2023-04-03T14:20:40;7.80;99.90
15452;DHT22;7827;53.594;9.938;2023-04-03T14:23:08;7.90;99.90
15452;DHT22;7827;53.594;9.938;2023-04-03T14:25:40;8.00;99.90
15452;DHT22;7827;53.594;9.938;2023-04-03T14:28:15;8.10;99.90
15452;DHT22;7827;53.594;9.938;2023-04-03T14:30:47;8.20;99.90
15452;DHT22;7827;53.594;9.938;2023-04-03T14:33:18;8.20;99.90
15452;DHT22;7827;53.594;9.938;2023-04-03T14:35:48;8.30;99.90
15452;DHT22;7827;53.594;9.938;2023-04-03T14:38:23;8.10;99.90
15452;DHT22;7827;53.594;9.938;2023-04-03T14:40:53;8.00;99.90
15452;DHT22;7827;53.594;9.938;2023-04-03T14:43:33;8.00;99.90
15452;DHT22;7827;53.594;9.938;2023-04-03T14:46:05;8.10;99.90
15452;DHT22;7827;53.594;9.938;2023-04-03T14:48:40;8.10;99.90
15452;DHT22;7827;53.594;9.938;2023-04-03T14:51:10;8.00;99.90
15452;DHT22;7827;53.594;9.938;2023-04-03T14:53:40;8.10;99.90
15452;DHT22;7827;53.594;9.938;2023-04-03T14:56:12;8.00;99.90
15452;DHT22;7827;53.594;9.938;2023-04-03T14:58:42;8.10;99.90
15452;DHT22;7827;53.594;9.938;2023-04-03T15:01:13;8.20;99.90
15452;DHT22;7827;53.594;9.938;2023-04-03T15:03:41;8.10;99.90
15452;DHT22;7827;53.594;9.938;2023-04-03T15:06:12;7.90;99.90
15452;DHT22;7827;53.594;9.938;2023-04-03T15:08:41;7.90;99.90
15452;DHT22;7827;53.594;9.938;2023-04-03T15:11:11;7.90;99.90
15452;DHT22;7827;53.594;9.938;2023-04-03T15:13:40;8.00;99.90
15452;DHT22;7827;53.594;9.938;2023-04-03T15:16:15;8.00;99.90
15452;DHT22;7827;53.594;9.938;2023-04-03T15:18:45;7.90;99.90
15452;DHT22;7827;53.594;9.938;2023-04-03T15:21:15;7.90;99.90
15452;DHT22;7827;53.594;9.938;2023-04-03T15:23:43;7.90;99.90
15452;DHT22;7827;53.594;9.938;2023-04-03T15:26:11;8.10;99.90
15452;DHT22;7827;53.594;9.938;2023-04-03T15:28:41;8.10;99.90
15452;DHT22;7827;53.594;9.938;2023-04-03T15:31:12;8.10;99.90
15452;DHT22;7827;53.594;9.938;2023-04-03T15:33:40;8.20;99.90
15452;DHT22;7827;53.594;9.938;2023-04-03T15:36:09;8.00;99.90
15452;DHT22;7827;53.594;9.938;2023-04-03T15:38:42;7.90;99.90
15452;DHT22;7827;53.594;9.938;2023-04-03T15:41:11;7.70;99.90
15452;DHT22;7827;53.594;9.938;2023-04-03T15:43:40;7.50;99.90
15452;DHT22;7827;53.594;9.938;2023-04-03T15:46:09;7.40;99.90
15452;DHT22;7827;53.594;9.938;2023-04-03T15:48:39;7.20;99.90
15452;DHT22;7827;53.594;9.938;2023-04-03T15:51:07;7.20;99.90
15452;DHT22;7827;53.594;9.938;2023-04-03T15:53:36;7.20;99.90
15452;DHT22;7827;53.594;9.938;2023-04-03T15:56:04;7.30;99.90
15452;DHT22;7827;53.594;9.938;2023-04-03T15:58:34;7.50;99.90
15452;DHT22;7827;53.594;9.938;2023-04-03T16:01:03;7.60;99.90
15452;DHT22;7827;53.594;9.938;2023-04-03T16:03:32;7.70;99.90
15452;DHT22;7827;53.594;9.938;2023-04-03T16:06:02;7.80;99.90
15452;DHT22;7827;53.594;9.938;2023-04-03T16:08:31;8.00;99.90
15452;DHT22;7827;53.594;9.938;2023-04-03T16:10:59;8.00;99.90
15452;DHT22;7827;53.594;9.938;2023-04-03T16:13:27;8.10;99.90
15452;DHT22;7827;53.594;9.938;2023-04-03T16:15:55;8.20;99.90
15452;DHT22;7827;53.594;9.938;2023-04-03T16:18:24;8.20;99.90
15452;DHT22;7827;53.594;9.938;2023-04-03T16:20:52;8.30;99.90
15452;DHT22;7827;53.594;9.938;2023-04-03T16:23:23;8.30;99.90
15452;DHT22;7827;53.594;9.938;2023-04-03T16:25:52;8.30;99.90
15452;DHT22;7827;53.594;9.938;2023-04-03T16:28:20;8.10;99.90
15452;DHT22;7827;53.594;9.938;2023-04-03T16:30:49;8.10;99.90
15452;DHT22;7827;53.594;9.938;2023-04-03T16:33:17;8.00;99.90
15452;DHT22;7827;53.594;9.938;2023-04-03T16:35:48;7.70;99.90
15452;DHT22;7827;53.594;9.938;2023-04-03T16:38:16;7.50;99.90
15452;DHT22;7827;53.594;9.938;2023-04-03T16:40:46;7.30;99.90
15452;DHT22;7827;53.594;9.938;2023-04-03T16:43:15;7.20;99.90
15452;DHT22;7827;53.594;9.938;2023-04-03T16:45:43;7.10;99.90